Time;durP1;ratioP1;P1;durP2;ratioP2;P2;SDS_P1;SDS_P2;PMS_P1;PMS_P2;Temp;Humidity;BMP_temperature;BMP_pressure;BME280_temperature;BME280_humidity;BME280_pressure;Samples;Min_cycle;Max_cycle;Signal;HPM_P1;HPM_P2
2023/11/09 00:02:17;;;;;;;0.90;0.60;;;14.20;89.20;;;;;;5036775;28;20029;-81
2023/11/09 00:04:42;;;;;;;1.20;0.80;;;14.10;89.20;;;;;;5054858;28;20060;-80
2023/11/09 00:07:08;;;;;;;2.67;1.00;;;14.10;89.30;;;;;;5036299;28;20032;-80
2023/11/09 00:09:35;;;;;;;1.25;0.70;;;14.20;89.30;;;;;;5036548;28;20398;-80
2023/11/09 00:12:00;;;;;;;0.82;0.60;;;14.10;89.40;;;;;;5036782;28;20029;-80
2023/11/09 00:14:26;;;;;;;1.40;0.63;;;14.10;89.40;;;;;;5036548;28;20027;-80
2023/11/09 00:16:53;;;;;;;0.93;0.50;;;14.10;89.40;;;;;;5036980;28;20025;-80
2023/11/09 00:19:19;;;;;;;1.10;0.60;;;14.10;89.40;;;;;;5036139;28;20120;-80
2023/11/09 00:21:45;;;;;;;1.08;0.68;;;14.20;89.40;;;;;;5036660;28;20055;-80
2023/11/09 00:24:11;;;;;;;0.73;0.68;;;14.10;89.40;;;;;;5036787;28;20033;-79
2023/11/09 00:26:45;;;;;;;1.00;0.50;;;14.10;89.40;;;;;;5036395;28;20112;-80
2023/11/09 00:29:12;;;;;;;1.40;0.70;;;14.10;89.50;;;;;;5053820;28;20082;-81
2023/11/09 00:31:38;;;;;;;1.83;0.70;;;14.10;89.50;;;;;;5036323;28;20033;-79
2023/11/09 00:34:04;;;;;;;0.95;0.57;;;14.10;89.50;;;;;;5036134;28;20027;-81
2023/11/09 00:36:30;;;;;;;1.98;0.80;;;14.10;89.50;;;;;;5053937;28;20076;-80
2023/11/09 00:38:56;;;;;;;2.05;0.70;;;14.10;89.50;;;;;;5036118;28;20025;-80
2023/11/09 00:41:21;;;;;;;1.23;0.80;;;14.10;89.50;;;;;;5054333;28;20048;-80
2023/11/09 00:43:47;;;;;;;1.75;0.70;;;14.10;89.50;;;;;;5036279;28;20032;-80
2023/11/09 00:46:12;;;;;;;1.15;0.73;;;14.10;89.50;;;;;;5035682;28;20029;-80
2023/11/09 00:48:38;;;;;;;1.38;0.77;;;14.10;89.60;;;;;;5035735;28;20112;-80
2023/11/09 00:51:03;;;;;;;1.40;0.85;;;14.10;89.60;;;;;;5036120;28;20372;-80
2023/11/09 00:53:30;;;;;;;1.38;0.70;;;14.10;89.50;;;;;;5036118;28;20048;-80
2023/11/09 00:55:55;;;;;;;1.15;0.60;;;14.20;89.30;;;;;;5054153;28;20040;-79
2023/11/09 00:58:21;;;;;;;0.60;0.60;;;14.20;89.10;;;;;;5035723;28;20120;-80
2023/11/09 01:00:46;;;;;;;1.13;0.60;;;14.20;89.00;;;;;;5035947;28;20112;-80
2023/11/09 01:03:12;;;;;;;1.17;0.70;;;14.20;88.90;;;;;;5053783;28;20120;-79
2023/11/09 01:05:37;;;;;;;1.83;0.75;;;14.20;88.80;;;;;;5054117;28;20036;-80
2023/11/09 01:08:03;;;;;;;1.05;0.60;;;14.20;88.90;;;;;;5035747;28;20064;-81
2023/11/09 01:10:28;;;;;;;1.27;0.50;;;14.20;89.00;;;;;;5052231;28;20036;-80
2023/11/09 01:12:54;;;;;;;1.50;0.60;;;14.20;89.00;;;;;;5053531;28;20036;-80
2023/11/09 01:15:19;;;;;;;1.80;0.80;;;14.20;89.10;;;;;;5053277;28;20552;-80
2023/11/09 01:18:03;;;;;;;1.13;0.70;;;14.20;89.20;;;;;;5035802;28;20032;-80
2023/11/09 01:20:30;;;;;;;0.50;0.47;;;14.20;89.20;;;;;;5035364;28;20025;-80
2023/11/09 01:22:56;;;;;;;0.98;0.70;;;14.10;89.10;;;;;;5035916;28;20036;-80
2023/11/09 01:25:21;;;;;;;1.73;0.73;;;14.10;89.20;;;;;;5035508;28;20033;-80
2023/11/09 01:27:47;;;;;;;0.70;0.47;;;14.10;89.30;;;;;;5035471;28;20029;-80
2023/11/09 01:30:12;;;;;;;1.15;0.70;;;14.10;89.40;;;;;;5035405;28;20576;-80
2023/11/09 01:32:38;;;;;;;1.58;0.70;;;14.10;89.40;;;;;;5035656;28;20025;-81
2023/11/09 01:35:03;;;;;;;0.90;0.60;;;14.10;89.40;;;;;;5035534;28;20116;-80
2023/11/09 01:37:29;;;;;;;1.20;0.65;;;14.10;89.40;;;;;;5035864;28;20036;-81
2023/11/09 01:39:54;;;;;;;1.10;0.75;;;14.10;89.50;;;;;;5053232;28;20475;-80
2023/11/09 01:42:20;;;;;;;1.27;0.57;;;14.10;89.50;;;;;;5035617;28;20033;-80
2023/11/09 01:44:45;;;;;;;1.33;0.70;;;14.10;89.50;;;;;;5035729;28;20399;-80
2023/11/09 01:47:11;;;;;;;1.65;0.70;;;14.10;89.50;;;;;;5035356;28;20021;-80
2023/11/09 01:49:39;;;;;;;1.35;0.70;;;14.10;89.50;;;;;;5035072;28;20032;-81
2023/11/09 01:52:05;;;;;;;2.75;0.90;;;14.10;89.50;;;;;;5035566;28;20029;-80
2023/11/09 01:54:32;;;;;;;1.13;0.63;;;14.10;89.50;;;;;;5053185;28;20028;-80
2023/11/09 01:56:58;;;;;;;1.60;0.70;;;14.10;89.50;;;;;;5035589;28;20017;-80
2023/11/09 01:59:27;;;;;;;1.55;0.70;;;14.10;89.50;;;;;;5035113;28;20025;-80
2023/11/09 02:01:55;;;;;;;2.47;0.77;;;14.10;89.40;;;;;;5053482;28;20075;-80
2023/11/09 02:04:21;;;;;;;1.23;0.52;;;14.10;89.60;;;;;;5035216;28;20021;-80
2023/11/09 02:06:48;;;;;;;1.75;0.70;;;14.10;89.50;;;;;;5053414;28;20071;-80
2023/11/09 02:09:14;;;;;;;1.25;0.70;;;14.10;89.50;;;;;;5052678;28;20022;-80
2023/11/09 02:11:40;;;;;;;0.73;0.60;;;14.10;89.60;;;;;;5035289;28;20025;-80
2023/11/09 02:14:05;;;;;;;0.95;0.55;;;14.10;89.70;;;;;;5035389;28;20025;-79
2023/11/09 02:16:32;;;;;;;1.73;0.73;;;14.10;89.80;;;;;;5052965;28;20501;-80
2023/11/09 02:18:58;;;;;;;0.75;0.60;;;14.10;89.60;;;;;;5034652;28;20549;-80
2023/11/09 02:21:25;;;;;;;0.73;0.60;;;14.10;89.50;;;;;;5035239;28;20025;-79
2023/11/09 02:23:53;;;;;;;1.23;0.60;;;14.20;89.50;;;;;;5053167;28;20483;-79
2023/11/09 02:26:19;;;;;;;1.40;0.52;;;14.10;89.20;;;;;;5035240;28;20033;-80
2023/11/09 02:28:48;;;;;;;1.67;0.80;;;14.10;89.10;;;;;;5052698;28;20498;-80
2023/11/09 02:31:13;;;;;;;1.08;0.60;;;14.20;89.00;;;;;;5036906;28;20483;-81
2023/11/09 02:33:39;;;;;;;0.88;0.60;;;14.20;88.90;;;;;;5039130;28;20054;-81
2023/11/09 02:36:05;;;;;;;0.95;0.60;;;14.20;88.80;;;;;;5056507;28;20689;-80
2023/11/09 02:38:31;;;;;;;1.15;0.70;;;14.20;88.90;;;;;;5038123;28;20021;-80
2023/11/09 02:40:56;;;;;;;1.40;0.65;;;14.20;89.00;;;;;;5038509;28;20025;-80
2023/11/09 02:43:22;;;;;;;1.05;0.60;;;14.20;89.10;;;;;;5038620;28;20055;-80
2023/11/09 02:45:48;;;;;;;2.47;0.80;;;14.20;89.10;;;;;;5038567;28;20518;-80
2023/11/09 02:48:13;;;;;;;1.02;0.60;;;14.20;89.20;;;;;;5055894;28;20024;-79
2023/11/09 02:50:39;;;;;;;0.63;0.50;;;14.20;89.30;;;;;;5038414;28;20027;-80
2023/11/09 02:53:04;;;;;;;1.00;0.60;;;14.20;89.30;;;;;;5038628;28;20029;-80
2023/11/09 02:55:30;;;;;;;0.90;0.57;;;14.10;89.30;;;;;;5037889;28;20028;-80
2023/11/09 02:57:55;;;;;;;0.98;0.60;;;14.10;89.40;;;;;;5038222;28;20028;-81
2023/11/09 03:00:21;;;;;;;0.82;0.50;;;14.10;89.40;;;;;;5038040;28;20414;-80
2023/11/09 03:02:46;;;;;;;0.65;0.52;;;14.10;89.50;;;;;;5038193;28;20024;-80
2023/11/09 03:05:12;;;;;;;1.55;0.60;;;14.10;89.50;;;;;;5038051;28;20033;-80
2023/11/09 03:07:38;;;;;;;0.95;0.52;;;14.10;89.60;;;;;;5055847;28;20029;-80
2023/11/09 03:10:05;;;;;;;1.08;0.60;;;14.10;89.60;;;;;;5035393;28;20044;-79
2023/11/09 03:12:30;;;;;;;0.93;0.63;;;14.10;89.70;;;;;;5041103;28;20028;-80
2023/11/09 03:14:56;;;;;;;1.13;0.70;;;14.10;89.70;;;;;;5037966;28;20013;-80
2023/11/09 03:17:22;;;;;;;0.93;0.60;;;14.10;89.70;;;;;;5038189;28;20013;-80
2023/11/09 03:19:47;;;;;;;0.60;0.50;;;14.10;89.70;;;;;;5037737;28;20571;-80
2023/11/09 03:22:13;;;;;;;0.75;0.57;;;14.10;89.70;;;;;;5055802;28;20025;-80
2023/11/09 03:24:41;;;;;;;1.52;0.50;;;14.10;89.70;;;;;;5037608;28;20024;-80
2023/11/09 03:27:09;;;;;;;1.13;0.60;;;14.10;89.70;;;;;;5037689;28;20029;-80
2023/11/09 03:29:38;;;;;;;0.93;0.63;;;14.10;89.70;;;;;;5037600;28;20086;-81
2023/11/09 03:32:06;;;;;;;1.17;0.80;;;14.10;89.70;;;;;;5055295;28;20029;-81
2023/11/09 03:34:32;;;;;;;1.10;0.50;;;14.10;89.70;;;;;;5038002;28;20487;-80
2023/11/09 03:36:57;;;;;;;1.20;0.68;;;14.10;89.70;;;;;;5037818;28;20075;-80
2023/11/09 03:39:24;;;;;;;1.15;0.70;;;14.00;89.70;;;;;;5037041;28;20079;-80
2023/11/09 03:41:49;;;;;;;1.52;0.60;;;14.00;89.70;;;;;;5036617;28;20407;-80
2023/11/09 03:44:15;;;;;;;1.42;0.63;;;14.00;89.70;;;;;;5037510;28;20029;-80
2023/11/09 03:46:40;;;;;;;1.05;0.60;;;14.00;89.80;;;;;;5037494;28;20031;-80
2023/11/09 03:49:10;;;;;;;0.73;0.60;;;14.10;89.80;;;;;;5055270;28;20100;-80
2023/11/09 03:51:36;;;;;;;1.38;0.60;;;14.10;89.70;;;;;;5037244;28;20036;-80
2023/11/09 03:54:03;;;;;;;1.23;0.65;;;14.10;89.70;;;;;;5036842;28;20029;-80
2023/11/09 03:56:29;;;;;;;0.80;0.60;;;14.10;89.50;;;;;;5037319;28;20021;-80
2023/11/09 03:58:54;;;;;;;1.13;0.70;;;14.10;89.20;;;;;;5057421;23;20051;-78
2023/11/09 04:01:20;;;;;;;1.25;0.65;;;14.10;89.10;;;;;;5054400;28;20025;-77
2023/11/09 04:03:46;;;;;;;1.13;0.60;;;14.10;89.10;;;;;;5054428;28;20029;-77
2023/11/09 04:06:17;;;;;;;1.10;0.60;;;14.20;89.00;;;;;;5053787;28;20128;-78
2023/11/09 04:08:44;;;;;;;1.13;0.60;;;14.20;89.00;;;;;;5027053;28;20030;-78
2023/11/09 04:11:10;;;;;;;1.30;0.70;;;14.20;89.00;;;;;;5017959;28;20030;-78
2023/11/09 04:13:36;;;;;;;0.50;0.47;;;14.20;89.00;;;;;;5036108;28;20108;-79
2023/11/09 04:16:02;;;;;;;1.48;0.70;;;14.20;89.10;;;;;;5037134;28;20025;-78
2023/11/09 04:18:27;;;;;;;1.23;0.60;;;14.20;89.20;;;;;;5036670;28;20013;-78
2023/11/09 04:20:53;;;;;;;0.52;0.52;;;14.20;89.20;;;;;;5037984;28;20389;-78
2023/11/09 04:23:19;;;;;;;1.67;0.75;;;14.10;89.10;;;;;;5038247;28;20025;-78
2023/11/09 04:25:44;;;;;;;0.57;0.52;;;14.10;89.30;;;;;;5038315;28;20469;-78
2023/11/09 04:28:10;;;;;;;0.70;0.57;;;14.10;89.40;;;;;;5019631;28;20053;-78
2023/11/09 04:30:36;;;;;;;1.20;0.60;;;14.10;89.40;;;;;;5037763;28;20040;-78
2023/11/09 04:33:09;;;;;;;1.02;0.60;;;14.10;89.50;;;;;;5038563;28;20487;-78
2023/11/09 04:35:39;;;;;;;0.60;0.60;;;14.10;89.50;;;;;;5019169;28;20630;-78
2023/11/09 04:38:05;;;;;;;0.80;0.60;;;14.10;89.60;;;;;;5018696;28;20572;-78
2023/11/09 04:40:30;;;;;;;1.45;0.70;;;14.10;89.60;;;;;;5018296;28;20050;-78
2023/11/09 04:42:57;;;;;;;0.85;0.50;;;14.10;89.60;;;;;;5036458;28;20030;-78
2023/11/09 04:45:25;;;;;;;0.93;0.55;;;14.10;89.70;;;;;;5037106;28;20030;-78
2023/11/09 04:47:55;;;;;;;0.70;0.40;;;14.00;89.60;;;;;;5018754;28;20026;-78
2023/11/09 04:50:28;;;;;;;0.77;0.60;;;14.10;89.70;;;;;;5036044;28;20029;-77
2023/11/09 04:53:03;;;;;;;1.35;0.70;;;14.10;89.70;;;;;;5036227;28;20025;-78
2023/11/09 04:55:43;;;;;;;1.02;0.60;;;14.10;89.70;;;;;;5018066;28;20047;-78
2023/11/09 05:09:07;;;;;;;2.85;0.60;;;14.00;89.70;;;;;;5030737;28;20115;-78
2023/11/09 05:11:32;;;;;;;0.73;0.50;;;14.00;89.80;;;;;;5016942;28;20017;-78
2023/11/09 05:13:58;;;;;;;0.95;0.70;;;14.00;89.80;;;;;;5016495;28;20034;-77
2023/11/09 05:16:24;;;;;;;1.02;0.55;;;14.00;89.80;;;;;;5017391;28;20018;-78
2023/11/09 05:18:49;;;;;;;1.80;0.90;;;14.00;89.90;;;;;;5013878;28;20021;-79
2023/11/09 05:21:15;;;;;;;1.35;0.73;;;14.00;89.90;;;;;;5016017;28;20064;-77
2023/11/09 05:23:40;;;;;;;1.00;0.80;;;14.00;89.90;;;;;;5015913;28;20021;-78
2023/11/09 05:26:06;;;;;;;1.20;0.63;;;14.10;89.90;;;;;;5016224;28;20033;-79
2023/11/09 05:28:31;;;;;;;0.75;0.60;;;14.10;89.80;;;;;;5018055;28;20022;-78
2023/11/09 05:30:57;;;;;;;0.88;0.60;;;14.10;89.60;;;;;;5025208;28;20063;-79
2023/11/09 05:33:23;;;;;;;0.90;0.50;;;14.10;89.40;;;;;;5038198;28;20509;-77
2023/11/09 05:35:49;;;;;;;1.52;0.60;;;14.10;89.30;;;;;;5052258;28;20025;-79
2023/11/09 05:38:14;;;;;;;1.23;0.60;;;14.10;89.20;;;;;;5034637;28;20025;-78
2023/11/09 05:40:43;;;;;;;0.60;0.60;;;14.20;89.20;;;;;;5052327;28;20088;-79
2023/11/09 05:43:11;;;;;;;0.88;0.63;;;14.10;89.10;;;;;;5014454;28;20089;-79
2023/11/09 05:45:36;;;;;;;1.55;0.60;;;14.20;89.20;;;;;;5014869;28;20032;-80
2023/11/09 05:48:02;;;;;;;0.50;0.50;;;14.20;89.30;;;;;;5014208;28;20033;-80
2023/11/09 05:50:28;;;;;;;0.50;0.50;;;14.20;89.40;;;;;;5014277;28;20032;-79
2023/11/09 05:52:54;;;;;;;0.90;0.50;;;14.10;89.40;;;;;;5013520;28;20026;-79
2023/11/09 05:55:19;;;;;;;1.58;0.55;;;14.10;89.50;;;;;;5014198;28;20040;-79
2023/11/09 05:57:44;;;;;;;0.70;0.60;;;14.10;89.60;;;;;;5013136;28;20072;-79
2023/11/09 06:00:13;;;;;;;0.73;0.57;;;14.10;89.60;;;;;;5017957;28;20040;-79
2023/11/09 06:02:39;;;;;;;0.60;0.50;;;14.10;89.60;;;;;;5050284;28;20056;-79
2023/11/09 06:05:05;;;;;;;0.52;0.50;;;14.10;89.70;;;;;;5031235;28;20407;-78
2023/11/09 06:07:30;;;;;;;1.08;0.50;;;14.10;89.70;;;;;;5035833;28;20552;-78
2023/11/09 06:09:56;;;;;;;2.88;0.90;;;14.00;89.70;;;;;;5053221;28;20029;-78
2023/11/09 06:12:22;;;;;;;1.17;0.50;;;14.10;89.90;;;;;;5036473;28;20467;-80
2023/11/09 06:14:47;;;;;;;1.38;0.68;;;14.00;89.80;;;;;;5053703;28;20051;-81
2023/11/09 06:17:13;;;;;;;0.80;0.55;;;14.00;90.10;;;;;;5035721;28;20399;-77
2023/11/09 06:19:38;;;;;;;0.70;0.50;;;14.00;89.80;;;;;;5035071;28;20667;-78
2023/11/09 06:22:04;;;;;;;0.52;0.50;;;14.00;89.90;;;;;;5036512;28;20017;-79
2023/11/09 06:24:30;;;;;;;0.88;0.50;;;14.00;89.90;;;;;;5014256;28;20021;-80
2023/11/09 06:26:56;;;;;;;1.50;0.60;;;14.00;89.90;;;;;;5015860;28;20080;-79
2023/11/09 06:29:22;;;;;;;1.25;0.50;;;14.00;89.90;;;;;;5015876;28;20368;-81
2023/11/09 06:31:50;;;;;;;0.98;0.70;;;14.00;89.90;;;;;;5016181;28;20025;-79
2023/11/09 06:34:15;;;;;;;1.27;0.70;;;14.00;89.80;;;;;;5015830;28;20034;-79
2023/11/09 06:36:47;;;;;;;1.17;0.45;;;14.00;89.90;;;;;;5032363;28;20079;-78
2023/11/09 06:39:16;;;;;;;1.13;0.63;;;14.00;89.90;;;;;;5014611;28;20079;-79
2023/11/09 06:41:43;;;;;;;0.73;0.60;;;14.00;89.90;;;;;;5033387;28;20028;-79
2023/11/09 06:44:09;;;;;;;0.88;0.60;;;14.00;90.00;;;;;;5032795;28;20129;-80
2023/11/09 06:46:37;;;;;;;0.57;0.57;;;14.00;90.00;;;;;;5043701;28;20699;-78
2023/11/09 06:49:03;;;;;;;0.88;0.57;;;14.00;90.00;;;;;;5051900;28;20058;-79
2023/11/09 06:51:28;;;;;;;1.40;0.70;;;14.00;90.00;;;;;;5026878;28;20051;-78
2023/11/09 06:53:54;;;;;;;0.95;0.55;;;14.00;90.00;;;;;;5033391;28;20033;-82
2023/11/09 06:56:20;;;;;;;0.45;0.45;;;14.00;90.00;;;;;;5015242;28;20021;-79
2023/11/09 06:58:46;;;;;;;1.00;0.50;;;14.00;89.90;;;;;;5031420;28;20038;-78
2023/11/09 07:01:11;;;;;;;0.82;0.50;;;14.10;89.90;;;;;;5013739;28;20022;-79
2023/11/09 07:03:37;;;;;;;1.83;0.60;;;14.10;89.70;;;;;;5031685;28;20033;-79
2023/11/09 07:06:03;;;;;;;2.00;0.70;;;14.10;89.50;;;;;;5033036;28;20131;-80
2023/11/09 07:08:28;;;;;;;2.45;0.80;;;14.10;89.30;;;;;;5034020;28;20037;-79
2023/11/09 07:10:54;;;;;;;5.88;0.90;;;14.10;89.10;;;;;;5034015;28;20049;-80
2023/11/09 07:13:20;;;;;;;6.45;0.90;;;14.10;89.00;;;;;;5031607;28;20021;-78
2023/11/09 07:15:48;;;;;;;8.30;1.52;;;14.10;88.90;;;;;;5031630;28;20029;-85
2023/11/09 07:18:14;;;;;;;12.13;1.73;;;14.10;88.90;;;;;;5028566;28;20049;-78
2023/11/09 07:20:41;;;;;;;12.43;1.65;;;14.10;89.10;;;;;;5016613;28;20442;-79
2023/11/09 07:23:07;;;;;;;8.27;1.38;;;14.10;89.20;;;;;;5034710;28;20033;-79
2023/11/09 07:25:38;;;;;;;10.48;1.23;;;14.10;89.20;;;;;;5035198;28;20505;-79
2023/11/09 07:28:07;;;;;;;7.90;0.90;;;14.00;89.20;;;;;;5017186;28;20032;-79
2023/11/09 07:30:32;;;;;;;7.18;1.10;;;14.10;89.40;;;;;;5034726;28;20554;-79
2023/11/09 07:33:03;;;;;;;10.45;1.30;;;14.00;89.40;;;;;;5023462;28;20025;-80
2023/11/09 07:35:29;;;;;;;9.88;1.45;;;14.00;89.40;;;;;;5024077;28;20025;-81
2023/11/09 07:37:55;;;;;;;7.20;1.42;;;14.00;89.50;;;;;;5041168;28;20025;-80
2023/11/09 07:40:22;;;;;;;5.85;1.13;;;14.00;89.50;;;;;;5023708;28;20026;-79
2023/11/09 07:42:48;;;;;;;7.15;1.05;;;14.00;89.50;;;;;;5024037;28;20562;-79
2023/11/09 07:45:14;;;;;;;7.43;1.17;;;14.00;89.60;;;;;;5023693;28;20025;-80
2023/11/09 07:47:40;;;;;;;6.78;1.13;;;14.00;89.70;;;;;;5022691;28;20030;-79
2023/11/09 07:50:09;;;;;;;4.80;0.95;;;14.00;89.70;;;;;;5021784;28;20025;-79
2023/11/09 07:52:37;;;;;;;6.93;1.23;;;14.00;89.70;;;;;;5040113;28;20021;-79
2023/11/09 07:55:07;;;;;;;5.00;1.20;;;14.00;89.80;;;;;;5021869;28;20049;-79
2023/11/09 07:57:34;;;;;;;5.35;0.98;;;14.00;89.80;;;;;;5021078;28;20480;-79
2023/11/09 08:00:00;;;;;;;5.88;1.10;;;14.00;89.80;;;;;;5039626;28;20033;-79
2023/11/09 08:02:26;;;;;;;4.53;1.08;;;14.00;89.80;;;;;;5021538;28;20483;-79
2023/11/09 08:04:54;;;;;;;4.05;0.85;;;14.00;89.80;;;;;;5019958;28;20032;-79
2023/11/09 08:07:21;;;;;;;4.13;1.00;;;14.00;89.80;;;;;;5020660;28;20526;-79
2023/11/09 08:09:47;;;;;;;3.90;1.23;;;14.00;89.80;;;;;;5020258;28;20091;-79
2023/11/09 08:12:12;;;;;;;3.50;0.75;;;14.00;89.90;;;;;;5038570;28;20029;-79
2023/11/09 08:14:38;;;;;;;5.60;1.08;;;14.00;89.80;;;;;;5019556;28;20443;-79
2023/11/09 08:17:04;;;;;;;5.45;1.08;;;14.00;89.90;;;;;;5037892;28;20025;-79
2023/11/09 08:19:29;;;;;;;3.45;0.80;;;14.00;89.90;;;;;;5019402;28;20026;-79
2023/11/09 08:21:54;;;;;;;8.40;1.27;;;14.00;89.90;;;;;;5037389;28;20037;-79
2023/11/09 08:24:20;;;;;;;3.42;0.80;;;13.90;89.90;;;;;;5019045;28;20025;-79
2023/11/09 08:26:47;;;;;;;4.78;1.02;;;14.00;90.00;;;;;;5019065;28;20112;-79
2023/11/09 08:29:13;;;;;;;3.00;0.73;;;14.00;89.90;;;;;;5017795;28;20116;-79
2023/11/09 08:31:39;;;;;;;3.22;0.90;;;14.00;89.80;;;;;;5036924;28;20456;-79
2023/11/09 08:34:05;;;;;;;4.78;0.90;;;14.00;89.70;;;;;;5018542;28;20034;-79
2023/11/09 08:36:31;;;;;;;3.40;0.98;;;14.10;89.70;;;;;;5018392;28;20108;-79
2023/11/09 08:38:57;;;;;;;2.00;0.70;;;14.10;89.60;;;;;;5017548;28;20502;-79
2023/11/09 08:41:22;;;;;;;3.47;0.82;;;14.10;89.40;;;;;;5020025;28;20036;-80
2023/11/09 08:43:49;;;;;;;2.45;0.90;;;14.10;89.30;;;;;;5022648;28;20096;-80
2023/11/09 08:46:15;;;;;;;2.83;0.88;;;14.10;89.20;;;;;;5023123;28;20560;-80
2023/11/09 08:48:41;;;;;;;3.53;0.95;;;14.10;89.20;;;;;;5022162;28;20026;-79
2023/11/09 08:51:16;;;;;;;3.38;0.77;;;14.20;89.40;;;;;;5040445;28;20034;-79
2023/11/09 08:53:43;;;;;;;2.70;0.70;;;14.10;89.40;;;;;;5021961;28;20022;-79
2023/11/09 08:56:12;;;;;;;3.70;0.75;;;14.10;89.50;;;;;;5021745;28;20026;-80
2023/11/09 08:58:39;;;;;;;2.33;0.82;;;14.10;89.60;;;;;;5039256;28;20097;-80
2023/11/09 09:01:16;;;;;;;3.30;0.90;;;14.00;89.60;;;;;;5039009;28;20034;-80
2023/11/09 09:03:43;;;;;;;1.88;0.75;;;14.00;89.60;;;;;;5019792;28;20034;-79
2023/11/09 09:06:09;;;;;;;2.55;0.70;;;14.00;89.70;;;;;;5020801;28;20026;-79
2023/11/09 09:08:35;;;;;;;2.83;0.90;;;14.00;89.70;;;;;;5019863;28;20033;-80
2023/11/09 09:11:01;;;;;;;3.10;0.90;;;14.00;89.80;;;;;;5020065;28;20373;-79
2023/11/09 09:13:27;;;;;;;2.80;0.95;;;14.00;89.90;;;;;;5019440;28;20030;-79
2023/11/09 09:15:53;;;;;;;4.45;0.90;;;14.00;89.90;;;;;;5037237;28;20083;-79
2023/11/09 09:18:19;;;;;;;4.13;0.80;;;14.00;89.90;;;;;;5019204;28;20026;-79
2023/11/09 09:20:45;;;;;;;1.48;0.60;;;14.00;89.90;;;;;;5037825;28;20025;-79
2023/11/09 09:23:11;;;;;;;2.08;0.80;;;14.00;90.00;;;;;;5038098;28;20052;-79
2023/11/09 09:25:38;;;;;;;1.85;0.75;;;14.00;90.00;;;;;;5018969;28;20113;-80
2023/11/09 09:28:04;;;;;;;2.22;0.80;;;14.00;90.00;;;;;;5018366;28;20563;-79
2023/11/09 09:30:30;;;;;;;0.98;0.60;;;14.00;90.00;;;;;;5019152;28;20057;-79
2023/11/09 09:32:55;;;;;;;3.03;0.70;;;14.00;90.00;;;;;;5018677;28;20025;-79
2023/11/09 09:35:25;;;;;;;1.63;0.70;;;14.00;90.00;;;;;;5018265;28;20022;-79
2023/11/09 09:37:51;;;;;;;0.98;0.52;;;14.00;90.00;;;;;;5036121;28;20391;-79
2023/11/09 09:40:20;;;;;;;1.08;0.60;;;14.00;90.00;;;;;;5018173;28;20104;-79
2023/11/09 09:42:56;;;;;;;3.63;0.70;;;14.00;90.00;;;;;;5039355;28;20030;-79
2023/11/09 09:45:26;;;;;;;2.70;0.50;;;14.00;90.00;;;;;;5021760;28;20159;-79
2023/11/09 09:47:54;;;;;;;1.90;0.68;;;14.00;90.00;;;;;;5039770;28;20022;-81
2023/11/09 09:50:22;;;;;;;1.55;0.70;;;14.00;90.00;;;;;;5039579;28;20021;-80
2023/11/09 09:52:50;;;;;;;2.45;0.70;;;14.00;90.00;;;;;;5015713;28;20021;-79
2023/11/09 09:55:18;;;;;;;3.35;0.95;;;13.90;90.00;;;;;;5015933;28;20032;-80
2023/11/09 09:57:45;;;;;;;1.30;0.68;;;14.00;90.10;;;;;;4999259;28;20026;-80
2023/11/09 10:00:14;;;;;;;2.95;0.70;;;14.00;90.00;;;;;;5016205;28;20044;-80
2023/11/09 10:02:40;;;;;;;1.80;0.80;;;14.00;90.00;;;;;;5054032;28;20556;-79
2023/11/09 10:05:12;;;;;;;2.05;0.70;;;14.00;90.00;;;;;;5038493;28;20029;-79
2023/11/09 10:08:08;;;;;;;1.05;0.52;;;14.10;90.00;;;;;;5056132;28;20104;-79
2023/11/09 10:10:36;;;;;;;1.40;0.80;;;14.10;89.80;;;;;;5035581;28;20060;-79
2023/11/09 10:13:06;;;;;;;1.35;0.68;;;14.10;89.70;;;;;;5053130;28;20025;-80
2023/11/09 10:15:32;;;;;;;1.48;0.60;;;14.10;89.60;;;;;;5059076;23;21896;-79
2023/11/09 10:18:00;;;;;;;2.00;0.70;;;14.10;89.50;;;;;;5038589;28;20116;-78
2023/11/09 10:20:26;;;;;;;1.25;0.70;;;14.10;89.50;;;;;;5036843;28;20028;-79
2023/11/09 10:22:55;;;;;;;1.10;0.50;;;14.10;89.60;;;;;;5038782;28;20508;-79
2023/11/09 10:25:27;;;;;;;2.50;0.80;;;14.10;89.60;;;;;;5054965;28;20021;-80
2023/11/09 10:27:56;;;;;;;0.75;0.50;;;14.10;89.70;;;;;;5036042;28;20022;-79
2023/11/09 10:30:22;;;;;;;2.67;0.80;;;14.10;89.70;;;;;;5036571;28;20112;-80
2023/11/09 10:32:47;;;;;;;1.65;0.60;;;14.10;89.80;;;;;;5018852;28;20507;-81
2023/11/09 10:35:15;;;;;;;1.48;0.50;;;14.10;90.10;;;;;;5036485;28;20049;-80
2023/11/09 10:37:43;;;;;;;0.70;0.50;;;14.00;89.90;;;;;;5018640;28;20392;-80
2023/11/09 10:40:13;;;;;;;2.30;0.63;;;14.00;89.90;;;;;;5036671;28;20021;-81
2023/11/09 10:42:39;;;;;;;1.30;0.65;;;14.00;89.90;;;;;;5036611;28;20043;-80
2023/11/09 10:45:10;;;;;;;1.10;0.63;;;14.00;90.00;;;;;;5036650;28;20036;-79
2023/11/09 10:47:39;;;;;;;1.75;0.60;;;14.00;90.00;;;;;;5036440;28;20025;-80
2023/11/09 10:50:14;;;;;;;1.52;0.60;;;14.00;90.00;;;;;;5018656;28;20461;-80
2023/11/09 10:52:43;;;;;;;1.50;0.60;;;14.00;90.00;;;;;;5035662;28;20021;-79
2023/11/09 10:55:11;;;;;;;0.70;0.50;;;14.00;90.00;;;;;;5036439;28;20044;-80
2023/11/09 10:57:43;;;;;;;1.13;0.70;;;14.00;90.00;;;;;;5018815;28;20017;-80
2023/11/09 11:00:11;;;;;;;0.80;0.50;;;14.00;90.00;;;;;;5035952;28;20480;-79
2023/11/09 11:02:47;;;;;;;1.20;0.60;;;14.00;90.00;;;;;;5036543;28;20032;-80
2023/11/09 11:05:15;;;;;;;1.77;0.60;;;13.90;90.00;;;;;;5035994;28;20040;-80
2023/11/09 11:07:43;;;;;;;0.90;0.40;;;14.00;90.00;;;;;;5018642;28;20095;-80
2023/11/09 11:10:16;;;;;;;1.58;0.50;;;14.00;90.10;;;;;;5018390;28;20029;-79
2023/11/09 11:12:43;;;;;;;0.77;0.60;;;14.00;90.10;;;;;;5018294;28;20026;-80
2023/11/09 11:15:13;;;;;;;1.27;0.40;;;14.00;90.00;;;;;;5036026;28;20022;-80
2023/11/09 11:18:32;;;;;;;2.40;0.63;;;14.00;90.10;;;;;;5018051;28;20044;-80
2023/11/09 11:21:29;;;;;;;0.52;0.47;;;13.90;90.10;;;;;;4957565;28;20392;-79
2023/11/09 11:24:21;;;;;;;0.82;0.45;;;14.00;90.10;;;;;;5036052;28;20155;-80
2023/11/09 11:27:09;;;;;;;0.60;0.40;;;14.00;90.10;;;;;;5018181;28;20025;-80
2023/11/09 11:29:38;;;;;;;1.17;0.63;;;14.00;90.10;;;;;;5035530;28;20035;-79
2023/11/09 11:32:07;;;;;;;1.77;0.52;;;14.00;90.10;;;;;;5035900;28;20033;-82
2023/11/09 11:34:48;;;;;;;1.92;0.60;;;14.00;90.10;;;;;;5035503;28;20028;-79
2023/11/09 11:37:21;;;;;;;0.90;0.50;;;14.00;90.00;;;;;;5017249;28;20041;-79
2023/11/09 11:39:46;;;;;;;0.73;0.40;;;14.10;89.90;;;;;;5017634;28;20029;-79
2023/11/09 11:42:16;;;;;;;0.85;0.57;;;14.10;89.80;;;;;;5017861;28;20021;-79
2023/11/09 11:44:48;;;;;;;0.73;0.50;;;14.10;89.70;;;;;;5017617;28;20025;-80
2023/11/09 11:47:14;;;;;;;1.73;0.70;;;14.10;89.60;;;;;;5017596;28;20021;-79
2023/11/09 11:49:40;;;;;;;1.50;0.60;;;14.10;89.60;;;;;;5035132;28;20392;-80
2023/11/09 11:52:09;;;;;;;1.23;0.57;;;14.10;89.50;;;;;;5034990;28;20028;-81
2023/11/09 11:54:35;;;;;;;0.40;0.40;;;14.20;89.60;;;;;;5035346;28;20112;-80
2023/11/09 11:57:01;;;;;;;0.88;0.60;;;14.10;89.50;;;;;;5017130;28;20033;-79
2023/11/09 11:59:29;;;;;;;0.63;0.50;;;14.10;89.60;;;;;;5017047;28;20018;-80
2023/11/09 12:01:57;;;;;;;0.73;0.60;;;14.10;89.70;;;;;;5017223;28;20478;-80
2023/11/09 12:04:23;;;;;;;1.08;0.60;;;14.10;89.80;;;;;;5016198;28;20498;-80
2023/11/09 12:06:52;;;;;;;0.88;0.50;;;14.10;89.80;;;;;;5035040;28;20029;-80
2023/11/09 12:09:18;;;;;;;1.98;0.60;;;14.10;89.90;;;;;;5034661;28;20514;-80
2023/11/09 12:11:46;;;;;;;1.20;0.45;;;14.10;90.00;;;;;;5017200;28;20029;-80
2023/11/09 12:14:18;;;;;;;0.93;0.60;;;14.10;90.00;;;;;;5017046;28;20025;-80
2023/11/09 12:16:44;;;;;;;1.52;0.45;;;14.10;90.00;;;;;;5034432;28;20040;-79
2023/11/09 12:19:11;;;;;;;1.42;0.60;;;14.00;90.00;;;;;;5034495;28;20434;-79
2023/11/09 12:21:37;;;;;;;0.60;0.50;;;14.10;90.00;;;;;;5017133;28;20024;-80
2023/11/09 12:24:03;;;;;;;1.10;0.60;;;14.10;90.00;;;;;;5034836;28;20564;-80
2023/11/09 12:26:32;;;;;;;1.20;0.60;;;14.00;90.00;;;;;;5034347;28;20021;-80
2023/11/09 12:29:00;;;;;;;0.82;0.55;;;14.00;90.00;;;;;;5016493;28;20036;-80
2023/11/09 12:31:27;;;;;;;0.50;0.50;;;14.00;90.00;;;;;;5034781;28;20036;-80
2023/11/09 12:33:59;;;;;;;0.80;0.70;;;14.10;90.00;;;;;;5034494;28;20075;-80
2023/11/09 12:36:25;;;;;;;;;;;14.10;90.00;;;;;;5016830;28;20802;-80
2023/11/09 12:38:52;;;;;;;1.65;0.50;;;14.10;90.00;;;;;;5033998;28;19944;-79
2023/11/09 12:41:23;;;;;;;0.98;0.50;;;14.10;90.00;;;;;;5016442;28;20514;-80
2023/11/09 12:43:50;;;;;;;1.15;0.50;;;14.10;90.00;;;;;;5016430;28;20033;-79
2023/11/09 12:46:16;;;;;;;1.48;0.60;;;14.10;90.10;;;;;;5016405;28;20132;-79
2023/11/09 12:48:47;;;;;;;1.40;0.60;;;14.10;90.10;;;;;;5034501;28;20538;-80
2023/11/09 12:51:23;;;;;;;1.02;0.63;;;14.10;90.00;;;;;;5034060;28;20056;-80
2023/11/09 12:53:52;;;;;;;1.42;0.50;;;14.10;90.10;;;;;;5034176;28;20033;-79
2023/11/09 12:56:21;;;;;;;1.17;0.70;;;14.00;90.00;;;;;;5016514;28;20096;-79
2023/11/09 12:58:53;;;;;;;1.15;0.63;;;14.10;90.10;;;;;;5033642;28;20022;-79
2023/11/09 13:01:19;;;;;;;0.93;0.57;;;14.10;90.10;;;;;;5016261;28;20083;-79